createdAt,value
2022-11-05T00:07:15.158Z,1.00
2022-11-05T00:17:17.912Z,0.70
2022-11-05T00:27:20.429Z,0.90
2022-11-05T00:37:22.829Z,1.57
2022-11-05T00:47:44.399Z,0.40
2022-11-05T00:57:46.791Z,0.87
2022-11-05T01:07:49.157Z,1.50
2022-11-05T01:17:52.580Z,1.33
2022-11-05T01:27:55.112Z,0.60
2022-11-05T01:37:57.460Z,0.63
2022-11-05T01:48:14.340Z,0.97
2022-11-05T01:58:21.558Z,0.70
2022-11-05T02:08:53.949Z,0.80
2022-11-05T02:19:50.285Z,1.20
2022-11-05T02:30:05.064Z,0.60
2022-11-05T02:40:19.900Z,1.30
2022-11-05T02:50:27.870Z,0.68
2022-11-05T03:00:53.198Z,0.50
2022-11-05T03:21:09.937Z,1.13
2022-11-05T03:31:14.853Z,1.60
2022-11-05T03:51:32.474Z,0.37
2022-11-05T04:01:37.522Z,0.50
2022-11-05T04:11:58.434Z,1.00
2022-11-05T04:22:19.110Z,0.63
2022-11-05T04:32:21.485Z,0.73
2022-11-05T04:42:23.806Z,1.70
2022-11-05T04:52:26.017Z,1.20
2022-11-05T05:02:28.705Z,3.60
2022-11-05T05:12:33.015Z,2.30
2022-11-05T05:22:35.636Z,3.03
2022-11-05T05:32:37.991Z,4.60
2022-11-05T05:42:43.211Z,6.23
2022-11-05T05:52:46.097Z,6.00
2022-11-05T06:02:48.549Z,5.33
2022-11-05T06:12:51.241Z,5.93
2022-11-05T06:22:57.745Z,6.40
2022-11-05T06:33:06.954Z,8.87
2022-11-05T06:43:09.930Z,8.97
2022-11-05T06:53:13.723Z,10.47
2022-11-05T07:03:16.388Z,10.83
2022-11-05T07:13:18.930Z,13.00
2022-11-05T07:23:21.568Z,11.70
2022-11-05T07:33:24.177Z,18.13
2022-11-05T07:43:26.660Z,12.20
2022-11-05T07:53:28.909Z,14.27
2022-11-05T08:03:31.439Z,10.77
2022-11-05T08:13:35.073Z,9.37
2022-11-05T08:23:39.407Z,11.37
2022-11-05T08:33:41.870Z,10.93
2022-11-05T08:43:44.619Z,10.47
2022-11-05T08:53:47.229Z,7.20
2022-11-05T09:03:53.203Z,7.30
2022-11-05T09:13:55.920Z,8.20
2022-11-05T09:23:58.388Z,5.33
2022-11-05T09:34:01.041Z,5.63
2022-11-05T09:44:16.713Z,6.83
2022-11-05T09:54:22.824Z,6.73
2022-11-05T10:04:31.405Z,4.53
2022-11-05T10:14:49.827Z,3.73
2022-11-05T10:24:53.914Z,3.47
2022-11-05T10:34:59.434Z,4.13
2022-11-05T10:45:30.871Z,4.10
2022-11-05T10:55:41.576Z,3.78
2022-11-05T11:05:44.172Z,5.30
2022-11-05T11:15:46.626Z,3.12
2022-11-05T11:25:57.955Z,2.95
2022-11-05T11:36:01.215Z,4.20
2022-11-05T11:46:09.879Z,4.50
2022-11-05T11:56:22.150Z,2.65
2022-11-05T12:06:35.896Z,5.60
2022-11-05T12:16:54.467Z,3.80
2022-11-05T12:27:17.457Z,2.70
2022-11-05T12:37:26.528Z,3.10
2022-11-05T12:47:32.198Z,3.67
2022-11-05T12:57:41.610Z,4.57
2022-11-05T13:08:01.287Z,1.35
2022-11-05T13:18:11.180Z,2.28
2022-11-05T13:28:36.446Z,1.12
2022-11-05T13:39:01.385Z,4.18
2022-11-05T13:49:04.137Z,1.83
2022-11-05T13:59:18.939Z,2.12
2022-11-05T14:19:33.716Z,3.60
2022-11-05T14:29:54.351Z,2.78
2022-11-05T14:40:01.824Z,1.50
2022-11-05T14:50:36.900Z,1.75
2022-11-05T15:00:43.560Z,4.20
2022-11-05T15:10:49.600Z,1.42
2022-11-05T15:20:57.550Z,2.70
2022-11-05T15:31:05.106Z,2.37
2022-11-05T15:41:17.675Z,1.53
2022-11-05T15:51:23.967Z,1.60
2022-11-05T16:01:46.014Z,3.23
2022-11-05T16:11:49.146Z,3.50
2022-11-05T16:21:55.552Z,2.27
2022-11-05T16:32:00.405Z,1.60
2022-11-05T16:42:14.154Z,2.08
2022-11-05T16:52:17.149Z,3.03
2022-11-05T17:02:19.939Z,3.97
2022-11-05T17:12:22.827Z,2.77
2022-11-05T17:22:25.462Z,5.03
2022-11-05T17:32:28.175Z,3.30
2022-11-05T17:42:30.847Z,2.83
2022-11-05T17:52:33.571Z,2.90
2022-11-05T18:02:36.210Z,3.67
2022-11-05T18:12:39.561Z,5.00
2022-11-05T18:22:43.793Z,7.10
2022-11-05T18:32:48.253Z,7.67
2022-11-05T18:42:51.096Z,10.23
2022-11-05T18:52:53.698Z,6.57
2022-11-05T19:02:56.380Z,7.27
2022-11-05T19:12:59.630Z,9.70
2022-11-05T19:23:03.352Z,8.17
2022-11-05T19:33:06.374Z,7.33
2022-11-05T19:43:09.303Z,6.07
2022-11-05T19:53:12.126Z,7.23
2022-11-05T20:03:14.907Z,8.70
2022-11-05T20:13:19.936Z,8.03
2022-11-05T20:23:22.729Z,6.20
2022-11-05T20:33:30.429Z,7.83
2022-11-05T20:43:33.306Z,7.30
2022-11-05T20:53:36.987Z,8.60
2022-11-05T21:03:39.949Z,8.70
2022-11-05T21:13:43.235Z,6.13
2022-11-05T21:23:45.867Z,8.27
2022-11-05T21:33:54.000Z,7.73
2022-11-05T21:43:57.864Z,12.37
2022-11-05T21:54:18.723Z,10.10
2022-11-05T22:04:21.335Z,6.87
2022-11-05T22:14:24.215Z,9.60
2022-11-05T22:24:28.571Z,10.27
2022-11-05T22:34:31.163Z,5.10
2022-11-05T22:44:33.553Z,5.63
2022-11-05T22:54:39.224Z,4.67
2022-11-05T23:04:42.624Z,6.57
2022-11-05T23:14:45.018Z,5.23
2022-11-05T23:24:48.352Z,4.60
2022-11-05T23:34:55.632Z,5.40
2022-11-05T23:45:16.966Z,7.70
2022-11-05T23:55:20.333Z,4.80
